createdAt,value
2022-07-31T00:01:09.111Z,4.10
2022-07-31T00:03:37.506Z,3.80
2022-07-31T00:06:05.930Z,3.92
2022-07-31T00:08:38.517Z,3.97
2022-07-31T00:11:06.794Z,4.55
2022-07-31T00:13:58.029Z,4.38
2022-07-31T00:16:23.430Z,4.05
2022-07-31T00:18:51.831Z,4.07
2022-07-31T00:21:20.154Z,3.90
2022-07-31T00:23:49.921Z,4.07
2022-07-31T00:26:18.212Z,4.20
2022-07-31T00:28:47.810Z,3.88
2022-07-31T00:31:16.087Z,4.25
2022-07-31T00:33:44.429Z,4.93
2022-07-31T00:36:14.148Z,4.30
2022-07-31T00:38:42.456Z,4.00
2022-07-31T00:41:12.233Z,4.93
2022-07-31T00:43:40.649Z,4.30
2022-07-31T00:46:14.322Z,4.43
2022-07-31T00:48:43.426Z,4.80
2022-07-31T00:51:12.419Z,4.40
2022-07-31T00:53:40.694Z,4.57
2022-07-31T00:56:09.098Z,4.90
2022-07-31T00:58:38.752Z,4.55
2022-07-31T01:01:07.226Z,4.18
2022-07-31T01:03:35.743Z,5.18
2022-07-31T01:06:04.123Z,5.22
2022-07-31T01:08:32.872Z,5.45
2022-07-31T01:11:07.044Z,4.80
2022-07-31T01:13:50.241Z,4.78
2022-07-31T01:16:19.555Z,5.38
2022-07-31T01:18:49.314Z,5.40
2022-07-31T01:21:24.671Z,5.80
2022-07-31T01:24:19.805Z,5.43
2022-07-31T01:27:05.574Z,5.38
2022-07-31T01:29:39.954Z,5.10
2022-07-31T01:32:12.077Z,5.18
2022-07-31T01:34:45.240Z,5.90
2022-07-31T01:37:20.791Z,5.80
2022-07-31T01:39:54.041Z,5.38
2022-07-31T01:42:26.956Z,5.35
2022-07-31T01:45:00.831Z,5.72
2022-07-31T01:47:30.711Z,5.18
2022-07-31T01:50:00.421Z,5.53
2022-07-31T01:52:31.695Z,5.85
2022-07-31T01:55:02.006Z,5.35
2022-07-31T01:57:32.753Z,5.40
2022-07-31T02:00:33.636Z,5.47
2022-07-31T02:03:09.260Z,5.68
2022-07-31T02:05:41.866Z,4.97
2022-07-31T02:08:12.689Z,5.63
2022-07-31T02:10:45.716Z,5.78
2022-07-31T02:13:15.287Z,5.43
2022-07-31T02:15:47.150Z,6.28
2022-07-31T02:18:19.714Z,6.30
2022-07-31T02:21:05.434Z,5.47
2022-07-31T02:23:34.660Z,5.78
2022-07-31T02:26:05.003Z,5.85
2022-07-31T02:28:38.262Z,5.80
2022-07-31T02:31:12.761Z,6.22
2022-07-31T02:33:44.532Z,5.45
2022-07-31T02:36:15.046Z,5.85
2022-07-31T02:38:44.509Z,5.68
2022-07-31T02:41:14.358Z,6.38
2022-07-31T02:43:43.818Z,6.60
2022-07-31T02:46:24.777Z,6.60
2022-07-31T02:48:53.928Z,6.35
2022-07-31T02:51:24.680Z,6.57
2022-07-31T02:53:54.680Z,6.30
2022-07-31T02:56:26.487Z,6.45
2022-07-31T02:58:55.778Z,6.13
2022-07-31T03:01:28.772Z,6.53
2022-07-31T03:03:58.028Z,5.93
2022-07-31T03:06:29.311Z,5.78
2022-07-31T03:08:57.700Z,6.60
2022-07-31T03:11:26.887Z,7.13
2022-07-31T03:13:59.063Z,6.50
2022-07-31T03:16:30.623Z,6.68
2022-07-31T03:19:02.371Z,6.43
2022-07-31T03:21:32.104Z,6.60
2022-07-31T03:24:00.690Z,7.15
2022-07-31T03:26:32.133Z,6.80
2022-07-31T03:29:02.251Z,7.25
2022-07-31T03:31:32.093Z,7.03
2022-07-31T03:34:00.416Z,6.90
2022-07-31T03:36:29.333Z,6.75
2022-07-31T03:38:57.820Z,7.53
2022-07-31T03:41:33.964Z,6.88
2022-07-31T03:44:02.869Z,7.20
2022-07-31T03:46:33.832Z,6.80
2022-07-31T03:49:02.496Z,7.00
2022-07-31T03:51:31.006Z,6.32
2022-07-31T03:54:00.018Z,7.60
2022-07-31T03:57:01.135Z,7.40
2022-07-31T03:59:32.426Z,7.15
2022-07-31T04:02:11.358Z,6.78
2022-07-31T04:04:44.610Z,6.57
2022-07-31T04:07:12.973Z,7.18
2022-07-31T04:09:41.602Z,7.15
2022-07-31T04:12:11.723Z,6.90
2022-07-31T04:14:40.128Z,7.25
2022-07-31T04:17:10.399Z,6.90
2022-07-31T04:19:39.523Z,6.93
2022-07-31T04:22:08.752Z,7.20
2022-07-31T04:24:38.003Z,6.70
2022-07-31T04:27:24.982Z,6.50
2022-07-31T04:29:53.680Z,6.53
2022-07-31T04:32:24.101Z,6.47
2022-07-31T04:34:59.555Z,7.05
2022-07-31T04:37:27.951Z,7.18
2022-07-31T04:39:56.504Z,6.60
2022-07-31T04:42:25.502Z,7.10
2022-07-31T04:44:54.796Z,7.47
2022-07-31T04:47:24.576Z,7.60
2022-07-31T04:49:53.608Z,7.05
2022-07-31T04:52:22.617Z,7.07
2022-07-31T04:54:52.085Z,6.30
2022-07-31T04:57:22.180Z,7.43
2022-07-31T04:59:59.093Z,6.47
2022-07-31T05:02:31.989Z,7.25
2022-07-31T05:05:00.386Z,7.63
2022-07-31T05:07:34.747Z,7.25
2022-07-31T05:10:08.339Z,6.95
2022-07-31T05:12:37.609Z,7.07
2022-07-31T05:15:07.775Z,7.35
2022-07-31T05:17:37.569Z,7.28
2022-07-31T05:20:35.199Z,7.03
2022-07-31T05:23:22.193Z,7.25
2022-07-31T05:26:08.109Z,7.63
2022-07-31T05:28:37.189Z,6.93
2022-07-31T05:31:05.949Z,7.25
2022-07-31T05:33:36.412Z,7.60
2022-07-31T05:36:05.752Z,7.10
2022-07-31T05:38:34.393Z,7.53
2022-07-31T05:41:21.016Z,6.55
2022-07-31T05:44:04.548Z,6.97
2022-07-31T05:46:42.556Z,7.28
2022-07-31T05:49:12.844Z,6.57
2022-07-31T05:51:44.510Z,6.30
2022-07-31T05:54:13.422Z,6.63
2022-07-31T05:57:00.269Z,5.72
2022-07-31T05:59:36.410Z,6.00
2022-07-31T06:02:05.447Z,5.90
2022-07-31T06:04:48.406Z,6.40
2022-07-31T06:07:16.948Z,6.22
2022-07-31T06:09:46.180Z,6.00
2022-07-31T06:12:17.599Z,6.40
2022-07-31T06:14:46.055Z,5.82
2022-07-31T06:17:20.964Z,5.78
2022-07-31T06:19:52.889Z,6.00
2022-07-31T06:22:23.522Z,5.40
2022-07-31T06:24:53.257Z,5.70
2022-07-31T06:27:33.537Z,6.03
2022-07-31T06:30:03.137Z,5.78
2022-07-31T06:32:31.964Z,5.30
2022-07-31T06:35:02.595Z,5.45
2022-07-31T06:37:34.304Z,5.15
2022-07-31T06:40:02.817Z,5.43
2022-07-31T06:43:09.892Z,5.65
2022-07-31T06:45:58.472Z,5.43
2022-07-31T06:49:06.810Z,5.22
2022-07-31T06:51:38.532Z,5.30
2022-07-31T06:54:09.027Z,5.10
2022-07-31T06:56:39.388Z,4.53
2022-07-31T06:59:08.649Z,4.70
2022-07-31T07:01:37.102Z,5.03
2022-07-31T07:04:06.425Z,4.63
2022-07-31T07:06:35.269Z,5.05
2022-07-31T07:09:05.309Z,4.53
2022-07-31T07:11:33.970Z,5.07
2022-07-31T07:14:02.561Z,4.13
2022-07-31T07:16:31.321Z,4.28
2022-07-31T07:18:59.887Z,4.78
2022-07-31T07:21:28.287Z,4.55
2022-07-31T07:23:56.654Z,4.63
2022-07-31T07:26:39.447Z,4.40
2022-07-31T07:29:10.728Z,4.47
2022-07-31T07:31:39.287Z,4.47
2022-07-31T07:34:09.401Z,4.38
2022-07-31T07:36:37.939Z,4.13
2022-07-31T07:39:26.527Z,3.80
2022-07-31T07:41:56.565Z,3.72
2022-07-31T07:44:24.936Z,4.10
2022-07-31T07:46:53.653Z,4.07
2022-07-31T07:49:22.868Z,4.05
2022-07-31T07:52:11.290Z,3.78
2022-07-31T07:54:39.818Z,3.95
2022-07-31T07:57:25.190Z,3.63
2022-07-31T08:00:32.215Z,3.42
2022-07-31T08:03:49.098Z,3.97
2022-07-31T08:05:52.901Z,3.90
2022-07-31T08:08:21.487Z,3.75
2022-07-31T08:10:49.931Z,3.33
2022-07-31T08:13:31.252Z,3.58
2022-07-31T08:16:18.795Z,3.50
2022-07-31T08:18:51.984Z,3.75
2022-07-31T08:21:20.530Z,3.92
2022-07-31T08:23:48.991Z,3.88
2022-07-31T08:26:27.475Z,4.22
2022-07-31T08:28:58.500Z,3.83
2022-07-31T08:31:33.476Z,3.60
2022-07-31T08:34:42.013Z,3.90
2022-07-31T08:37:59.208Z,3.42
2022-07-31T08:40:00.705Z,3.50
2022-07-31T08:42:29.095Z,4.28
2022-07-31T08:44:59.449Z,4.15
2022-07-31T08:47:34.463Z,3.88
2022-07-31T08:50:15.303Z,4.10
2022-07-31T08:52:45.929Z,4.13
2022-07-31T08:55:55.106Z,3.85
2022-07-31T08:58:13.428Z,4.07
2022-07-31T09:00:44.285Z,4.13
2022-07-31T09:03:13.062Z,4.30
2022-07-31T09:05:51.459Z,4.68
2022-07-31T09:08:20.167Z,4.38
2022-07-31T09:11:03.441Z,4.07
2022-07-31T09:13:38.313Z,4.15
2022-07-31T09:16:30.866Z,4.65
2022-07-31T09:19:01.971Z,4.55
2022-07-31T09:21:40.315Z,4.32
2022-07-31T09:24:10.335Z,3.78
2022-07-31T09:26:41.010Z,4.20
2022-07-31T09:29:12.648Z,5.20
2022-07-31T09:31:43.361Z,4.68
2022-07-31T09:34:35.011Z,5.32
2022-07-31T09:37:12.519Z,5.70
2022-07-31T09:39:59.401Z,5.30
2022-07-31T09:42:55.033Z,5.90
2022-07-31T09:45:29.130Z,5.53
2022-07-31T09:48:13.779Z,6.20
2022-07-31T09:50:54.539Z,6.25
2022-07-31T09:53:24.207Z,5.82
2022-07-31T09:55:58.901Z,6.53
2022-07-31T09:58:30.632Z,5.35
2022-07-31T10:00:59.363Z,5.57
2022-07-31T10:03:29.383Z,5.50
2022-07-31T10:05:59.091Z,5.85
2022-07-31T10:08:30.388Z,5.90
2022-07-31T10:11:35.710Z,5.88
2022-07-31T10:14:23.248Z,5.82
2022-07-31T10:16:55.767Z,5.53
2022-07-31T10:20:04.344Z,5.10
2022-07-31T10:22:52.861Z,5.70
2022-07-31T10:25:27.447Z,4.95
2022-07-31T10:27:57.381Z,5.75
2022-07-31T10:30:28.433Z,5.63
2022-07-31T10:33:00.241Z,5.85
2022-07-31T10:35:30.501Z,6.13
2022-07-31T10:38:05.123Z,6.20
2022-07-31T10:41:12.334Z,6.15
2022-07-31T10:43:46.940Z,6.35
2022-07-31T10:46:44.737Z,6.60
2022-07-31T10:49:41.600Z,6.00
2022-07-31T10:52:39.389Z,6.80
2022-07-31T10:55:30.535Z,6.63
2022-07-31T10:58:26.951Z,7.10
2022-07-31T11:01:17.578Z,7.05
2022-07-31T11:04:06.168Z,7.18
2022-07-31T11:06:49.154Z,7.32
2022-07-31T11:09:45.426Z,7.95
2022-07-31T11:13:00.790Z,7.30
2022-07-31T11:16:04.898Z,7.78
2022-07-31T11:19:01.012Z,8.02
2022-07-31T11:21:39.284Z,9.18
2022-07-31T11:24:15.921Z,9.48
2022-07-31T11:26:50.547Z,8.75
2022-07-31T11:29:59.965Z,9.75
2022-07-31T11:32:25.491Z,9.02
2022-07-31T11:34:57.782Z,9.57
2022-07-31T11:37:39.480Z,9.02
2022-07-31T11:40:15.283Z,9.18
2022-07-31T11:42:46.371Z,9.40
2022-07-31T11:45:17.307Z,9.40
2022-07-31T11:48:12.687Z,9.30
2022-07-31T11:50:41.474Z,8.65
2022-07-31T11:53:09.801Z,8.15
2022-07-31T11:55:46.643Z,8.40
2022-07-31T11:58:17.394Z,7.72
2022-07-31T12:00:53.309Z,7.20
2022-07-31T12:03:23.399Z,7.90
2022-07-31T12:05:57.892Z,8.75
2022-07-31T12:08:28.572Z,7.88
2022-07-31T12:10:58.294Z,8.85
2022-07-31T12:13:38.528Z,8.57
2022-07-31T12:16:09.548Z,8.35
2022-07-31T12:18:48.377Z,9.50
2022-07-31T12:21:21.234Z,9.23
2022-07-31T12:23:50.720Z,9.60
2022-07-31T12:26:27.852Z,10.13
2022-07-31T12:29:05.735Z,10.13
2022-07-31T12:31:46.811Z,10.15
2022-07-31T12:34:15.038Z,10.82
2022-07-31T12:36:43.141Z,11.20
2022-07-31T12:39:13.762Z,12.00
2022-07-31T12:41:43.893Z,12.13
2022-07-31T12:44:44.442Z,12.77
2022-07-31T12:47:22.780Z,12.43
2022-07-31T12:49:59.944Z,12.38
2022-07-31T12:52:31.461Z,13.57
2022-07-31T12:55:00.250Z,12.82
2022-07-31T12:57:29.929Z,13.32
2022-07-31T12:59:59.713Z,13.70
2022-07-31T13:02:29.237Z,14.50
2022-07-31T13:04:58.947Z,14.50
2022-07-31T13:07:29.075Z,14.30
2022-07-31T13:10:20.494Z,14.57
2022-07-31T13:12:45.213Z,14.57
2022-07-31T13:15:13.633Z,15.00
2022-07-31T13:17:43.940Z,14.27
2022-07-31T13:20:19.217Z,14.95
2022-07-31T13:22:47.387Z,14.65
2022-07-31T13:25:17.980Z,15.90
2022-07-31T13:27:49.373Z,15.57
2022-07-31T13:35:26.860Z,16.08
2022-07-31T13:46:56.552Z,20.13
2022-07-31T13:49:35.992Z,21.35
2022-07-31T13:52:12.853Z,21.42
2022-07-31T13:54:48.646Z,21.98
2022-07-31T13:57:16.711Z,19.70
2022-07-31T13:59:45.123Z,21.02
2022-07-31T14:02:15.752Z,20.85
2022-07-31T14:04:44.405Z,21.40
2022-07-31T14:07:13.103Z,21.23
2022-07-31T14:09:47.019Z,21.98
2022-07-31T14:12:25.446Z,22.48
2022-07-31T14:14:53.538Z,23.30
2022-07-31T14:17:25.388Z,24.05
2022-07-31T14:19:53.507Z,26.17
2022-07-31T14:22:21.687Z,28.70
2022-07-31T14:24:51.525Z,28.20
2022-07-31T14:27:21.040Z,29.48
2022-07-31T14:30:02.319Z,27.08
2022-07-31T14:32:32.508Z,27.70
2022-07-31T14:35:06.001Z,27.90
2022-07-31T14:37:38.547Z,26.35
2022-07-31T14:40:07.740Z,27.02
2022-07-31T14:42:36.335Z,26.98
2022-07-31T14:45:06.188Z,27.95
2022-07-31T14:47:35.993Z,29.33
2022-07-31T14:50:07.431Z,27.83
2022-07-31T14:52:38.179Z,27.48
2022-07-31T14:55:07.284Z,28.50
2022-07-31T14:57:35.535Z,28.73
2022-07-31T15:00:03.763Z,28.80
2022-07-31T15:02:31.826Z,26.98
2022-07-31T15:06:49.262Z,27.88
2022-07-31T15:07:49.715Z,27.38
2022-07-31T15:10:18.107Z,27.73
2022-07-31T15:12:46.138Z,27.42
2022-07-31T15:15:14.214Z,26.27
2022-07-31T15:17:42.398Z,25.55
2022-07-31T15:20:12.772Z,23.80
2022-07-31T15:22:40.891Z,25.02
2022-07-31T15:25:10.191Z,23.02
2022-07-31T15:27:38.229Z,21.95
2022-07-31T15:30:08.158Z,22.52
2022-07-31T15:32:38.229Z,21.55
2022-07-31T15:35:08.454Z,20.05
2022-07-31T15:37:39.489Z,20.83
2022-07-31T15:40:09.926Z,18.98
2022-07-31T15:42:40.571Z,19.88
2022-07-31T15:45:13.181Z,19.45
2022-07-31T15:47:42.393Z,18.08
2022-07-31T15:50:12.443Z,16.27
2022-07-31T15:52:42.678Z,15.23
2022-07-31T15:55:11.595Z,15.60
2022-07-31T15:57:40.219Z,16.35
2022-07-31T16:00:10.587Z,16.00
2022-07-31T16:02:42.586Z,15.77
2022-07-31T16:05:21.623Z,14.80
2022-07-31T16:08:32.747Z,14.60
2022-07-31T16:10:54.870Z,11.93
2022-07-31T16:13:24.953Z,11.77
2022-07-31T16:15:56.946Z,9.60
2022-07-31T16:18:29.390Z,8.70
2022-07-31T16:20:57.743Z,7.82
2022-07-31T16:23:28.098Z,6.75
2022-07-31T16:25:56.666Z,6.93
2022-07-31T16:28:25.192Z,5.95
2022-07-31T16:30:54.938Z,5.43
2022-07-31T16:33:22.938Z,5.50
2022-07-31T16:35:51.138Z,5.32
2022-07-31T16:38:19.198Z,5.45
2022-07-31T16:40:53.103Z,5.53
2022-07-31T16:43:50.289Z,5.65
2022-07-31T16:46:10.563Z,5.15
2022-07-31T16:48:38.753Z,5.25
2022-07-31T16:51:07.351Z,5.07
2022-07-31T16:54:13.590Z,4.13
2022-07-31T16:56:25.810Z,4.70
2022-07-31T16:58:55.554Z,4.22
2022-07-31T17:01:53.928Z,4.78
2022-07-31T17:04:13.786Z,4.82
2022-07-31T17:06:41.992Z,4.18
2022-07-31T17:09:17.480Z,3.97
2022-07-31T17:11:49.929Z,3.92
2022-07-31T17:14:19.101Z,3.78
2022-07-31T17:16:49.429Z,4.72
2022-07-31T17:19:42.038Z,4.18
2022-07-31T17:22:07.583Z,4.55
2022-07-31T17:24:37.252Z,3.58
2022-07-31T17:27:08.922Z,3.30
2022-07-31T17:29:52.091Z,3.33
2022-07-31T17:32:20.179Z,3.95
2022-07-31T17:34:49.580Z,3.60
2022-07-31T17:37:18.206Z,4.05
2022-07-31T17:39:46.740Z,4.32
2022-07-31T17:42:18.047Z,4.80
2022-07-31T17:44:54.633Z,4.80
2022-07-31T17:47:26.004Z,4.30
2022-07-31T17:49:54.626Z,4.40
2022-07-31T17:52:22.799Z,3.95
2022-07-31T17:54:52.288Z,3.80
2022-07-31T17:57:22.876Z,3.00
2022-07-31T17:59:51.835Z,2.67
2022-07-31T18:02:19.924Z,2.70
2022-07-31T18:08:06.045Z,2.85
2022-07-31T18:10:53.406Z,2.90
2022-07-31T18:13:27.750Z,2.80
2022-07-31T18:15:56.091Z,2.60
2022-07-31T18:18:24.772Z,3.00
2022-07-31T18:20:53.192Z,2.90
2022-07-31T18:23:23.169Z,2.97
2022-07-31T18:25:52.632Z,3.20
2022-07-31T18:28:20.947Z,3.40
2022-07-31T18:30:51.002Z,3.35
2022-07-31T18:33:19.486Z,3.17
2022-07-31T18:35:47.978Z,3.28
2022-07-31T18:38:17.148Z,3.35
2022-07-31T18:40:45.846Z,3.20
2022-07-31T18:43:14.554Z,2.85
2022-07-31T18:45:42.855Z,2.70
2022-07-31T18:48:13.171Z,2.88
2022-07-31T18:50:59.046Z,2.65
2022-07-31T18:53:30.021Z,2.60
2022-07-31T18:55:58.334Z,2.45
2022-07-31T18:58:26.728Z,2.45
2022-07-31T19:00:55.597Z,2.42
2022-07-31T19:03:27.523Z,2.45
2022-07-31T19:05:55.800Z,1.50
2022-07-31T19:08:24.212Z,1.20
2022-07-31T19:10:53.654Z,1.42
2022-07-31T19:13:22.793Z,1.05
2022-07-31T19:15:53.235Z,0.98
2022-07-31T19:18:26.371Z,1.10
2022-07-31T19:21:21.212Z,1.10
2022-07-31T19:23:48.787Z,0.98
2022-07-31T19:26:17.615Z,0.80
2022-07-31T19:28:47.273Z,1.00
2022-07-31T19:31:16.169Z,1.02
2022-07-31T19:33:45.084Z,1.10
2022-07-31T19:36:16.224Z,0.90
2022-07-31T19:38:45.274Z,0.85
2022-07-31T19:41:17.453Z,0.93
2022-07-31T19:43:46.071Z,1.02
2022-07-31T19:46:14.547Z,0.80
2022-07-31T19:48:44.342Z,0.98
2022-07-31T19:51:13.561Z,1.08
2022-07-31T19:53:44.576Z,1.17
2022-07-31T19:56:20.513Z,1.40
2022-07-31T19:58:50.526Z,1.40
2022-07-31T20:01:21.792Z,1.27
2022-07-31T20:03:50.993Z,1.20
2022-07-31T20:06:20.193Z,1.17
2022-07-31T20:08:50.341Z,1.20
2022-07-31T20:11:19.019Z,1.30
2022-07-31T20:13:47.356Z,1.35
2022-07-31T20:16:16.256Z,1.17
2022-07-31T20:18:45.693Z,1.50
2022-07-31T20:21:14.857Z,1.40
2022-07-31T20:23:44.394Z,1.67
2022-07-31T20:26:19.932Z,1.40
2022-07-31T20:28:48.351Z,1.50
2022-07-31T20:31:21.561Z,1.50
2022-07-31T20:33:57.384Z,1.40
2022-07-31T20:36:27.009Z,1.27
2022-07-31T20:38:56.637Z,1.50
2022-07-31T20:41:27.470Z,1.60
2022-07-31T20:43:56.247Z,1.50
2022-07-31T20:46:24.528Z,1.42
2022-07-31T20:48:52.933Z,1.80
2022-07-31T20:51:23.316Z,1.70
2022-07-31T20:53:52.199Z,1.70
2022-07-31T20:56:21.288Z,1.70
2022-07-31T20:58:52.110Z,2.00
2022-07-31T21:01:21.217Z,2.13
2022-07-31T21:03:50.535Z,2.10
2022-07-31T21:06:19.441Z,2.55
2022-07-31T21:08:47.960Z,2.63
2022-07-31T21:11:17.241Z,2.53
2022-07-31T21:13:45.917Z,3.30
2022-07-31T21:16:15.957Z,3.22
2022-07-31T21:18:44.677Z,3.05
2022-07-31T21:21:13.455Z,2.70
2022-07-31T21:23:41.742Z,2.63
2022-07-31T21:26:11.518Z,2.05
2022-07-31T21:28:40.550Z,1.80
2022-07-31T21:31:09.619Z,1.70
2022-07-31T21:33:40.188Z,1.27
2022-07-31T21:36:09.729Z,1.50
2022-07-31T21:38:40.329Z,1.48
2022-07-31T21:41:09.577Z,2.03
2022-07-31T21:43:58.136Z,1.50
2022-07-31T21:46:28.221Z,1.75
2022-07-31T21:48:58.719Z,1.83
2022-07-31T21:51:27.644Z,1.95
2022-07-31T21:53:55.946Z,1.70
2022-07-31T21:56:24.670Z,2.28
2022-07-31T21:58:53.651Z,2.20
2022-07-31T22:01:22.191Z,2.20
2022-07-31T22:03:50.931Z,2.13
2022-07-31T22:06:38.130Z,2.70
2022-07-31T22:09:06.459Z,2.05
2022-07-31T22:11:35.864Z,2.15
2022-07-31T22:14:04.446Z,2.58
2022-07-31T22:16:32.816Z,2.50
2022-07-31T22:19:01.589Z,2.30
2022-07-31T22:21:32.206Z,2.20
2022-07-31T22:24:00.977Z,2.80
2022-07-31T22:26:29.947Z,3.28
2022-07-31T22:28:59.608Z,3.83
2022-07-31T22:31:28.481Z,3.83
2022-07-31T22:33:57.661Z,4.90
2022-07-31T22:36:27.025Z,4.80
2022-07-31T22:38:57.567Z,4.18
2022-07-31T22:41:26.187Z,4.63
2022-07-31T22:44:12.958Z,4.55
2022-07-31T22:46:43.403Z,4.45
2022-07-31T22:49:12.699Z,5.00
2022-07-31T22:51:46.131Z,5.10
2022-07-31T22:54:16.368Z,5.22
2022-07-31T22:56:45.816Z,5.57
2022-07-31T22:59:14.194Z,6.40
2022-07-31T23:01:42.574Z,7.15
2022-07-31T23:04:11.309Z,7.28
2022-07-31T23:06:39.987Z,7.43
2022-07-31T23:09:08.290Z,8.15
2022-07-31T23:11:38.923Z,8.57
2022-07-31T23:14:07.412Z,9.07
2022-07-31T23:16:35.732Z,9.48
2022-07-31T23:19:04.301Z,9.00
2022-07-31T23:21:33.746Z,9.65
2022-07-31T23:24:02.180Z,8.95
2022-07-31T23:26:30.519Z,7.80
2022-07-31T23:29:00.273Z,8.20
2022-07-31T23:31:28.567Z,8.40
2022-07-31T23:33:57.308Z,8.40
2022-07-31T23:36:25.768Z,8.00
2022-07-31T23:38:54.315Z,9.07
2022-07-31T23:41:36.494Z,7.80
2022-07-31T23:44:10.664Z,8.95
2022-07-31T23:46:40.357Z,7.88
2022-07-31T23:49:09.719Z,8.20
2022-07-31T23:51:38.606Z,7.47
2022-07-31T23:54:08.044Z,5.95
2022-07-31T23:56:36.560Z,3.70
2022-07-31T23:59:06.259Z,4.38
